Time;durP1;ratioP1;P1;durP2;ratioP2;P2;SDS_P1;SDS_P2;PMS_P1;PMS_P2;Temp;Humidity;BMP_temperature;BMP_pressure;BME280_temperature;BME280_humidity;BME280_pressure;Samples;Min_cycle;Max_cycle;Signal;HPM_P1;HPM_P2
2023/08/09 00:02:18;;;;;;;3.42;1.95;;;;;;;19.21;69.75;100647.41;10527920;28;20048;-73
2023/08/09 00:07:20;;;;;;;2.45;1.88;;;;;;;19.36;69.54;100641.22;10510428;28;20495;-73
2023/08/09 00:12:23;;;;;;;3.03;1.92;;;;;;;19.40;68.72;100653.28;10472154;28;20080;-73
2023/08/09 00:17:25;;;;;;;2.80;1.52;;;;;;;19.23;69.17;100650.66;10491976;28;20074;-74
2023/08/09 00:22:28;;;;;;;4.50;1.92;;;;;;;19.45;68.70;100652.28;10528682;28;20035;-73
2023/08/09 00:27:30;;;;;;;3.50;1.88;;;;;;;19.61;68.12;100658.88;10526984;28;20033;-73
2023/08/09 00:32:32;;;;;;;3.55;1.83;;;;;;;19.57;67.31;100669.88;10527061;28;20036;-74
2023/08/09 00:37:37;;;;;;;3.53;1.70;;;;;;;19.13;69.56;100687.22;10476236;28;20045;-73
2023/08/09 00:42:41;;;;;;;1.73;1.60;;;;;;;19.20;69.50;100681.94;10502034;28;20419;-73
2023/08/09 00:47:43;;;;;;;7.82;1.73;;;;;;;19.36;68.36;100680.19;10467692;28;20439;-73
2023/08/09 00:52:46;;;;;;;5.35;1.95;;;;;;;19.05;69.21;100685.31;10472718;28;20045;-74
2023/08/09 00:57:49;;;;;;;3.45;1.83;;;;;;;19.12;69.65;100688.38;10518320;28;20064;-73
2023/08/09 01:02:51;;;;;;;3.70;1.77;;;;;;;19.14;69.65;100694.41;10525482;28;20052;-73
2023/08/09 01:08:05;;;;;;;4.75;1.85;;;;;;;18.75;69.98;100699.22;10530001;28;20053;-73
2023/08/09 01:13:07;;;;;;;2.03;1.63;;;;;;;18.34;72.08;100702.63;10517702;28;20040;-73
2023/08/09 01:18:10;;;;;;;4.30;2.03;;;;;;;18.59;71.42;100706.47;10514594;28;20047;-73
2023/08/09 01:23:18;;;;;;;3.90;1.85;;;;;;;18.30;72.55;100699.69;10491800;28;20053;-73
2023/08/09 01:28:20;;;;;;;7.60;2.17;;;;;;;18.56;71.63;100701.53;10474861;28;20064;-73
2023/08/09 01:33:25;;;;;;;13.88;3.08;;;;;;;18.65;71.05;100707.94;10453287;28;20040;-74
2023/08/09 01:38:32;;;;;;;8.35;2.80;;;;;;;18.53;71.40;100710.56;10533104;28;20036;-73
2023/08/09 01:43:34;;;;;;;8.95;2.72;;;;;;;18.30;71.73;100719.13;10513884;28;20049;-73
2023/08/09 01:48:36;;;;;;;6.00;2.42;;;;;;;18.20;72.89;100727.81;10515452;28;20040;-73
2023/08/09 01:53:39;;;;;;;11.05;2.45;;;;;;;18.63;71.61;100729.69;10501351;28;20049;-73
2023/08/09 01:58:41;;;;;;;8.98;3.10;;;;;;;18.66;71.40;100738.16;10491560;28;20052;-73
2023/08/09 02:03:43;;;;;;;4.00;2.78;;;;;;;18.45;71.81;100740.03;10472082;28;20051;-73
2023/08/09 02:08:46;;;;;;;5.72;2.35;;;;;;;18.30;72.42;100741.38;10473165;28;20037;-73
2023/08/09 02:13:48;;;;;;;12.25;2.63;;;;;;;18.35;73.52;100741.19;10511894;28;20414;-73
2023/08/09 02:18:51;;;;;;;9.60;2.50;;;;;;;18.35;72.84;100746.72;10497401;28;20047;-73
2023/08/09 02:23:53;;;;;;;9.38;2.50;;;;;;;17.93;73.80;100742.91;10512576;28;20075;-73
2023/08/09 02:28:55;;;;;;;20.92;3.53;;;;;;;18.37;72.37;100738.88;10472435;28;20041;-73
2023/08/09 02:33:58;;;;;;;17.63;2.85;;;;;;;17.93;73.03;100747.63;10455030;28;20040;-73
2023/08/09 02:39:01;;;;;;;20.20;3.35;;;;;;;17.85;73.06;100749.25;10441887;28;20056;-73
2023/08/09 02:44:03;;;;;;;22.00;4.32;;;;;;;17.91;72.94;100752.69;10472410;28;20056;-73
2023/08/09 02:49:06;;;;;;;22.02;5.03;;;;;;;17.94;72.40;100749.28;10508764;28;20573;-73
2023/08/09 02:54:08;;;;;;;23.15;4.50;;;;;;;17.70;73.04;100752.53;10466075;28;20037;-73
2023/08/09 02:59:10;;;;;;;13.02;4.22;;;;;;;18.56;71.18;100751.56;10504735;28;20059;-73
2023/08/09 03:04:13;;;;;;;18.15;3.85;;;;;;;20.09;65.76;100754.91;10527801;28;20048;-73
2023/08/09 03:09:15;;;;;;;19.50;3.78;;;;;;;20.94;62.15;100769.06;10524442;28;20048;-73
2023/08/09 03:14:17;;;;;;;16.63;4.43;;;;;;;21.35;60.50;100768.06;10505576;28;20052;-73
2023/08/09 03:19:20;;;;;;;18.50;4.13;;;;;;;21.55;59.62;100771.06;10501059;28;20056;-73
2023/08/09 03:24:24;;;;;;;15.63;3.85;;;;;;;22.14;58.48;100764.81;10491555;28;20044;-73
2023/08/09 03:29:28;;;;;;;12.98;3.42;;;;;;;22.25;58.52;100765.94;10505340;28;20047;-73
2023/08/09 03:34:31;;;;;;;15.93;4.03;;;;;;;22.09;58.56;100773.47;10487995;28;20047;-73
2023/08/09 03:39:36;;;;;;;20.65;4.75;;;;;;;22.56;57.16;100774.41;10466693;28;20044;-73
2023/08/09 03:44:38;;;;;;;13.10;4.55;;;;;;;22.73;57.15;100776.00;10526738;28;20728;-73
2023/08/09 03:49:40;;;;;;;13.18;4.20;;;;;;;23.32;54.99;100777.13;10509039;28;20410;-73
2023/08/09 03:54:42;;;;;;;11.25;3.63;;;;;;;23.19;55.97;100782.00;10500480;28;20143;-73
2023/08/09 03:59:45;;;;;;;13.45;4.05;;;;;;;23.46;54.21;100772.66;10523657;28;20037;-73
2023/08/09 04:04:47;;;;;;;10.57;3.70;;;;;;;23.88;54.03;100788.00;10526502;28;20048;-73
2023/08/09 04:09:49;;;;;;;14.82;4.15;;;;;;;24.24;52.71;100781.94;10476557;28;20040;-72
2023/08/09 04:14:52;;;;;;;12.40;4.50;;;;;;;24.18;52.34;100780.63;10502110;28;20045;-73
2023/08/09 04:19:54;;;;;;;9.32;3.95;;;;;;;23.99;52.88;100777.84;10496615;28;20499;-72
2023/08/09 04:24:56;;;;;;;7.90;2.90;;;;;;;24.08;51.77;100772.81;10531195;28;20051;-74
2023/08/09 04:30:00;;;;;;;7.93;2.63;;;;;;;24.78;50.48;100780.16;10485976;28;20049;-74
2023/08/09 04:35:04;;;;;;;3.78;2.30;;;;;;;25.21;48.59;100795.78;10517298;28;20037;-74
2023/08/09 04:40:10;;;;;;;4.88;2.47;;;;;;;25.91;47.58;100795.25;10521780;28;20390;-74
2023/08/09 04:45:13;;;;;;;4.30;2.60;;;;;;;26.35;45.79;100806.66;10484445;28;20056;-74
2023/08/09 04:50:15;;;;;;;4.47;1.90;;;;;;;26.36;44.93;100799.00;10485902;28;20041;-74
2023/08/09 04:55:18;;;;;;;4.05;2.38;;;;;;;26.32;45.85;100796.13;10467833;28;20060;-74
2023/08/09 05:00:20;;;;;;;1.45;1.02;;;;;;;26.55;44.06;100810.06;10484655;28;20056;-74
2023/08/09 05:05:22;;;;;;;2.45;1.20;;;;;;;25.96;43.96;100813.75;10467135;28;20044;-74
2023/08/09 05:10:25;;;;;;;2.08;1.40;;;;;;;27.19;42.75;100801.47;10489040;28;20049;-74
2023/08/09 05:15:27;;;;;;;1.85;1.42;;;;;;;26.20;44.39;100804.00;10467440;28;20057;-75
2023/08/09 05:20:30;;;;;;;3.58;1.60;;;;;;;26.04;44.90;100802.25;10485174;28;20041;-74
2023/08/09 05:25:32;;;;;;;2.88;1.83;;;;;;;26.04;45.33;100801.44;10484499;28;20048;-74
2023/08/09 05:30:34;;;;;;;2.28;1.70;;;;;;;26.76;43.68;100798.25;10484872;28;20083;-74
2023/08/09 05:35:36;;;;;;;1.83;1.50;;;;;;;25.38;45.38;100814.91;10487375;28;20056;-74
2023/08/09 05:40:39;;;;;;;3.15;1.50;;;;;;;26.53;42.46;100820.09;10525374;28;20060;-74
2023/08/09 05:45:42;;;;;;;1.17;0.90;;;;;;;27.60;40.55;100816.28;10526918;28;20053;-74
2023/08/09 05:50:44;;;;;;;2.60;1.00;;;;;;;26.65;39.93;100815.03;10500987;28;20404;-74
2023/08/09 05:55:47;;;;;;;1.60;0.98;;;;;;;26.79;41.41;100814.38;10489046;28;20055;-74
2023/08/09 06:00:50;;;;;;;3.05;1.10;;;;;;;27.34;39.39;100811.66;10489203;28;20411;-74
2023/08/09 06:05:52;;;;;;;2.47;0.98;;;;;;;27.97;38.33;100809.66;10487691;28;20061;-74
2023/08/09 06:10:54;;;;;;;2.53;1.08;;;;;;;27.69;39.22;100811.09;10488619;28;20053;-74
2023/08/09 06:15:57;;;;;;;4.15;1.17;;;;;;;27.84;38.00;100812.81;10485194;28;20044;-74
2023/08/09 06:20:59;;;;;;;4.45;1.17;;;;;;;28.14;35.82;100818.19;10488824;28;20056;-75
2023/08/09 06:26:02;;;;;;;2.00;1.08;;;;;;;28.78;36.42;100804.28;10487699;28;20048;-74
2023/08/09 06:31:04;;;;;;;1.65;0.85;;;;;;;27.70;36.76;100814.72;10464496;28;20422;-74
2023/08/09 06:36:07;;;;;;;1.27;0.75;;;;;;;27.85;36.64;100816.44;10487320;28;20032;-74
2023/08/09 06:41:09;;;;;;;1.77;0.95;;;;;;;29.22;35.60;100822.09;10470115;28;20618;-74
2023/08/09 06:46:11;;;;;;;3.22;1.23;;;;;;;27.62;37.59;100809.03;10487458;28;20045;-74
2023/08/09 06:51:15;;;;;;;3.67;1.13;;;;;;;27.72;37.85;100809.50;10483919;28;20511;-75
2023/08/09 06:56:17;;;;;;;2.55;1.13;;;;;;;29.02;37.06;100810.41;10440267;28;1247951;-74
2023/08/09 07:01:19;;;;;;;1.83;0.90;;;;;;;28.89;36.10;100812.00;10529915;28;20503;-75
2023/08/09 07:06:22;;;;;;;2.55;1.23;;;;;;;28.11;36.91;100821.78;10529442;28;20445;-75
2023/08/09 07:11:24;;;;;;;2.83;1.05;;;;;;;27.86;38.42;100810.41;10507813;28;20084;-75
2023/08/09 07:16:27;;;;;;;1.33;1.00;;;;;;;28.04;37.00;100815.31;10510146;28;20060;-75
2023/08/09 07:21:29;;;;;;;4.47;1.15;;;;;;;29.47;35.19;100820.06;10528316;28;20036;-75
2023/08/09 07:26:32;;;;;;;1.13;1.00;;;;;;;27.80;37.35;100817.63;10528060;28;20139;-75
2023/08/09 07:31:34;;;;;;;2.03;1.00;;;;;;;28.06;36.94;100818.53;10525841;28;20052;-75
2023/08/09 07:36:36;;;;;;;2.35;1.10;;;;;;;27.77;36.87;100818.41;10527125;28;20052;-75
2023/08/09 07:41:38;;;;;;;1.15;1.02;;;;;;;28.75;35.50;100822.03;10526271;28;20033;-75
2023/08/09 07:46:41;;;;;;;1.73;1.10;;;;;;;28.50;35.28;100827.63;10522264;28;20040;-76
2023/08/09 07:51:43;;;;;;;2.67;1.42;;;;;;;29.29;34.29;100822.09;10527551;28;20048;-76
2023/08/09 07:56:45;;;;;;;4.93;1.00;;;;;;;26.81;38.53;100817.59;10508042;28;20060;-75
2023/08/09 08:01:48;;;;;;;2.03;1.08;;;;;;;28.57;35.52;100817.56;10481173;28;20040;-76
2023/08/09 08:06:50;;;;;;;4.32;1.27;;;;;;;29.54;33.87;100836.25;10523739;28;20060;-75
2023/08/09 08:11:53;;;;;;;3.15;1.20;;;;;;;29.81;32.76;100833.75;10527057;28;20053;-76
2023/08/09 08:16:56;;;;;;;4.97;1.30;;;;;;;29.75;33.27;100833.38;10519037;28;20419;-76
2023/08/09 08:21:59;;;;;;;3.08;1.25;;;;;;;29.52;33.23;100835.84;10508523;28;20041;-76
2023/08/09 08:27:01;;;;;;;2.55;1.10;;;;;;;29.46;33.31;100838.25;10524334;28;20032;-76
2023/08/09 08:32:04;;;;;;;2.67;1.10;;;;;;;27.94;35.81;100828.16;10523934;28;20040;-76
2023/08/09 08:37:06;;;;;;;1.67;1.23;;;;;;;27.69;36.14;100832.84;10524869;28;20041;-76
2023/08/09 08:42:09;;;;;;;4.97;1.55;;;;;;;27.91;35.14;100832.56;10522230;28;20048;-76
2023/08/09 08:47:11;;;;;;;4.28;1.25;;;;;;;26.76;37.53;100840.47;10522614;28;20062;-76
2023/08/09 08:52:15;;;;;;;2.45;1.17;;;;;;;26.41;38.52;100836.09;10524455;28;20032;-75
2023/08/09 08:57:17;;;;;;;2.92;1.15;;;;;;;28.04;35.47;100837.88;10507575;28;20052;-75
2023/08/09 09:02:19;;;;;;;3.67;1.55;;;;;;;28.38;34.28;100847.75;10509787;28;20037;-76
2023/08/09 09:07:21;;;;;;;3.10;1.77;;;;;;;29.77;32.88;100839.44;10525345;28;20048;-77
2023/08/09 09:12:24;;;;;;;3.13;1.25;;;;;;;30.24;31.79;100843.75;10521837;28;20033;-76
2023/08/09 09:17:27;;;;;;;3.42;1.38;;;;;;;29.89;32.32;100844.66;10516140;28;20051;-77
2023/08/09 09:22:30;;;;;;;3.38;1.58;;;;;;;28.90;32.97;100839.03;10534436;28;20052;-76
2023/08/09 09:27:33;;;;;;;2.50;1.40;;;;;;;28.27;34.12;100841.25;10527440;28;20037;-76
2023/08/09 09:32:35;;;;;;;5.18;1.80;;;;;;;27.32;35.53;100843.03;10499782;28;20049;-77
2023/08/09 09:37:38;;;;;;;3.15;2.15;;;;;;;25.88;38.97;100840.19;10535390;28;20052;-76
2023/08/09 09:42:40;;;;;;;2.03;1.50;;;;;;;25.11;40.22;100830.09;10525638;28;20047;-74
2023/08/09 09:47:42;;;;;;;6.25;2.55;;;;;;;25.22;40.71;100825.50;10521915;28;20064;-74
2023/08/09 09:52:45;;;;;;;5.40;1.83;;;;;;;24.66;42.86;100812.06;10540761;28;20047;-74
2023/08/09 09:57:49;;;;;;;3.28;1.90;;;;;;;25.55;41.07;100811.56;10551377;28;20055;-73
2023/08/09 10:02:52;;;;;;;2.25;1.70;;;;;;;25.65;40.54;100809.28;10530216;28;20044;-73
2023/08/09 10:07:56;;;;;;;4.82;1.90;;;;;;;25.53;41.17;100819.56;10532305;28;20049;-73
2023/08/09 10:13:01;;;;;;;4.40;1.58;;;;;;;25.25;40.42;100811.50;10514877;28;20033;-73
2023/08/09 10:18:27;;;;;;;5.75;2.15;;;;;;;24.70;41.18;100815.72;10514871;28;20691;-73
2023/08/09 10:23:29;;;;;;;4.22;2.25;;;;;;;25.30;41.28;100817.97;10514693;28;20044;-73
2023/08/09 10:28:45;;;;;;;7.30;2.63;;;;;;;24.62;42.06;100816.75;10522928;28;20059;-73
2023/08/09 10:34:06;;;;;;;5.22;2.10;;;;;;;25.03;40.40;100825.56;10538740;28;20048;-73
2023/08/09 10:39:11;;;;;;;4.85;2.00;;;;;;;24.52;41.07;100826.63;10531107;28;20582;-73
2023/08/09 10:44:13;;;;;;;5.85;2.45;;;;;;;24.41;42.80;100828.38;10516361;28;20522;-73
2023/08/09 10:49:15;;;;;;;5.80;2.30;;;;;;;24.67;42.78;100836.13;10513842;28;20079;-73
2023/08/09 10:54:21;;;;;;;6.00;2.05;;;;;;;24.83;42.17;100834.03;10513371;28;20051;-73
2023/08/09 10:59:24;;;;;;;2.58;1.85;;;;;;;24.80;42.90;100831.94;10530760;28;20395;-73
2023/08/09 11:04:26;;;;;;;2.60;1.67;;;;;;;25.01;42.93;100833.56;10563137;28;20052;-73
2023/08/09 11:09:32;;;;;;;3.45;1.90;;;;;;;25.10;41.77;100832.09;10545678;28;20040;-73
2023/08/09 11:14:34;;;;;;;3.20;1.63;;;;;;;25.36;41.86;100836.97;10529783;28;20041;-74
2023/08/09 11:19:36;;;;;;;3.50;1.98;;;;;;;25.53;40.90;100850.47;10515590;28;20065;-73
2023/08/09 11:24:38;;;;;;;3.35;1.95;;;;;;;25.43;41.31;100850.31;10529790;28;20130;-73
2023/08/09 11:29:41;;;;;;;3.35;1.75;;;;;;;25.41;41.76;100853.50;10557864;28;20047;-74
2023/08/09 11:34:43;;;;;;;3.45;2.15;;;;;;;25.37;41.66;100847.00;10571934;28;20123;-73
2023/08/09 11:39:45;;;;;;;2.33;1.90;;;;;;;25.27;42.05;100844.03;10556437;28;20037;-74
2023/08/09 11:44:48;;;;;;;4.05;1.83;;;;;;;25.20;41.55;100847.53;10527022;28;20041;-73
2023/08/09 11:49:50;;;;;;;8.13;2.35;;;;;;;25.19;41.79;100857.16;10528037;28;20039;-73
2023/08/09 11:54:52;;;;;;;2.83;1.75;;;;;;;24.81;42.43;100850.41;10528087;28;20056;-73
2023/08/09 11:59:54;;;;;;;4.07;1.92;;;;;;;24.72;42.55;100846.22;10434231;28;20057;-73
2023/08/09 12:04:57;;;;;;;5.38;2.13;;;;;;;25.31;42.37;100847.69;10445764;28;20424;-73
2023/08/09 12:10:02;;;;;;;4.28;2.03;;;;;;;24.94;41.12;100840.63;10445538;28;20037;-73
2023/08/09 12:15:07;;;;;;;4.80;1.98;;;;;;;25.10;41.21;100840.53;10448940;28;20412;-73
2023/08/09 12:20:10;;;;;;;3.15;1.80;;;;;;;24.98;40.82;100840.69;10428394;28;20401;-73
2023/08/09 12:25:12;;;;;;;2.10;1.77;;;;;;;25.21;40.46;100832.28;10491331;28;20052;-74
2023/08/09 12:30:14;;;;;;;5.20;1.70;;;;;;;25.33;40.68;100839.69;10463503;28;20028;-74
2023/08/09 12:35:17;;;;;;;5.22;1.83;;;;;;;25.63;39.43;100831.34;10445111;28;20041;-74
2023/08/09 12:40:20;;;;;;;3.20;2.00;;;;;;;26.15;39.80;100824.84;10450000;28;20044;-74
2023/08/09 12:45:22;;;;;;;2.75;1.80;;;;;;;25.66;39.59;100824.94;10457980;28;20033;-74
2023/08/09 12:50:25;;;;;;;4.03;1.80;;;;;;;25.34;39.33;100828.09;10474181;28;20037;-74
2023/08/09 12:55:28;;;;;;;2.40;1.90;;;;;;;24.71;40.12;100830.56;10478832;28;20060;-75
2023/08/09 13:00:31;;;;;;;4.75;1.83;;;;;;;25.02;40.01;100838.00;10497635;28;20499;-75
2023/08/09 13:05:34;;;;;;;2.83;1.67;;;;;;;24.72;40.97;100835.81;10513121;28;20049;-72
2023/08/09 13:10:36;;;;;;;3.92;1.85;;;;;;;24.99;40.66;100842.28;10529691;28;20040;-72
2023/08/09 13:15:39;;;;;;;2.70;1.67;;;;;;;24.90;40.66;100853.78;10512978;28;20048;-72
2023/08/09 13:20:41;;;;;;;3.88;1.83;;;;;;;25.08;40.02;100856.94;10531737;28;20045;-72
2023/08/09 13:25:43;;;;;;;2.13;1.83;;;;;;;25.15;40.59;100856.25;10499972;28;20410;-74
2023/08/09 13:30:46;;;;;;;3.92;1.75;;;;;;;25.03;41.00;100864.88;10531082;28;20047;-72
2023/08/09 13:35:48;;;;;;;5.15;1.70;;;;;;;24.79;41.12;100860.38;10513897;28;20036;-72
2023/08/09 13:40:50;;;;;;;3.13;1.80;;;;;;;24.84;40.63;100860.91;10531965;28;20052;-73
2023/08/09 13:45:52;;;;;;;1.95;1.42;;;;;;;24.90;40.24;100862.22;10519547;28;20040;-73
2023/08/09 13:50:55;;;;;;;3.42;1.60;;;;;;;24.90;40.41;100873.44;10521424;28;20366;-73
2023/08/09 13:55:57;;;;;;;5.00;1.85;;;;;;;24.88;40.95;100864.59;10523072;28;20052;-72
2023/08/09 14:00:59;;;;;;;3.45;2.08;;;;;;;24.73;41.44;100868.31;10530542;28;20048;-72
2023/08/09 14:06:02;;;;;;;4.35;2.13;;;;;;;24.54;42.12;100865.53;10503842;28;22283;-72
2023/08/09 14:11:04;;;;;;;3.67;1.88;;;;;;;24.49;40.57;100874.25;10520622;28;20040;-71
2023/08/09 14:16:06;;;;;;;2.38;1.70;;;;;;;23.95;40.89;100877.84;10531487;28;20033;-71
2023/08/09 14:21:09;;;;;;;2.72;1.95;;;;;;;23.66;41.52;100871.59;10528412;28;20095;-71
2023/08/09 14:26:11;;;;;;;2.15;1.67;;;;;;;23.96;42.26;100874.69;10529048;28;20063;-71
2023/08/09 14:31:13;;;;;;;4.53;1.98;;;;;;;23.50;45.27;100875.56;10524636;28;20032;-71
2023/08/09 14:36:16;;;;;;;8.68;1.95;;;;;;;23.14;46.74;100867.09;10515734;28;20044;-71
2023/08/09 14:41:18;;;;;;;3.72;1.70;;;;;;;23.13;47.35;100871.06;10527176;28;20037;-71
2023/08/09 14:46:20;;;;;;;2.38;1.48;;;;;;;23.07;48.31;100866.88;10505446;28;20063;-71
2023/08/09 14:51:23;;;;;;;4.95;1.60;;;;;;;22.94;49.99;100875.75;10528725;28;20040;-71
2023/08/09 14:56:25;;;;;;;1.40;1.30;;;;;;;22.84;50.00;100882.66;10504413;28;20060;-71
2023/08/09 15:01:28;;;;;;;2.85;1.40;;;;;;;22.76;51.18;100883.63;10513889;28;20060;-71
2023/08/09 15:06:30;;;;;;;2.67;1.30;;;;;;;22.50;51.39;100884.88;10530539;28;20529;-71
2023/08/09 15:11:33;;;;;;;3.70;1.50;;;;;;;22.32;51.76;100888.34;10527047;28;20045;-71
2023/08/09 15:16:37;;;;;;;2.25;1.45;;;;;;;22.38;52.03;100889.69;10519971;28;20561;-71
2023/08/09 15:21:39;;;;;;;2.03;1.30;;;;;;;22.50;52.03;100882.09;10496442;28;20568;-71
2023/08/09 15:26:41;;;;;;;1.50;1.25;;;;;;;22.26;51.42;100885.00;10524945;28;20036;-71
2023/08/09 15:31:43;;;;;;;2.17;1.50;;;;;;;22.22;51.54;100878.47;10500429;28;20413;-71
2023/08/09 15:36:46;;;;;;;2.97;1.55;;;;;;;22.40;51.31;100881.81;10517257;28;20036;-71
2023/08/09 15:41:48;;;;;;;2.13;1.63;;;;;;;22.38;51.32;100881.31;10517325;28;20074;-71
2023/08/09 15:46:50;;;;;;;2.70;1.73;;;;;;;22.34;51.46;100889.59;10516628;28;20048;-71
2023/08/09 15:51:53;;;;;;;2.47;1.73;;;;;;;22.67;51.42;100894.13;10506246;28;20040;-71
2023/08/09 15:56:57;;;;;;;3.47;1.27;;;;;;;22.61;52.07;100898.38;10515507;28;20419;-71
2023/08/09 16:02:00;;;;;;;3.22;1.67;;;;;;;22.15;53.25;100904.22;10520320;28;20041;-71
2023/08/09 16:07:02;;;;;;;1.67;1.20;;;;;;;21.84;54.13;100904.00;10522078;28;20139;-71
2023/08/09 16:12:10;;;;;;;4.05;1.52;;;;;;;21.70;55.11;100907.19;10525404;28;20028;-71
2023/08/09 16:17:12;;;;;;;3.38;1.50;;;;;;;21.91;54.25;100890.28;10516656;28;20048;-71
2023/08/09 16:22:15;;;;;;;2.90;1.67;;;;;;;21.72;55.47;100896.47;10509536;28;20503;-71
2023/08/09 16:27:17;;;;;;;2.45;1.40;;;;;;;21.73;55.17;100889.72;10516159;28;20040;-71
2023/08/09 16:32:20;;;;;;;2.35;1.38;;;;;;;21.86;54.64;100882.94;10512280;28;20127;-72
2023/08/09 16:37:22;;;;;;;1.73;1.40;;;;;;;21.75;54.78;100895.75;10521797;28;20043;-71
2023/08/09 16:42:24;;;;;;;2.70;1.40;;;;;;;21.68;55.18;100892.72;10513728;28;20037;-72
2023/08/09 16:47:26;;;;;;;2.17;1.30;;;;;;;21.63;55.00;100893.78;10512580;28;20852;-72
2023/08/09 16:52:29;;;;;;;2.47;1.67;;;;;;;21.61;55.33;100884.13;10524441;28;20052;-73
2023/08/09 16:57:32;;;;;;;2.80;1.45;;;;;;;21.52;55.81;100878.69;10465502;28;20049;-73
2023/08/09 17:02:35;;;;;;;1.95;1.60;;;;;;;21.28;55.72;100879.47;10445452;28;20041;-73
2023/08/09 17:07:37;;;;;;;2.97;1.55;;;;;;;21.42;55.88;100878.31;10476337;28;20053;-72
2023/08/09 17:12:40;;;;;;;4.35;1.88;;;;;;;21.47;55.49;100880.88;10470937;28;20044;-73
2023/08/09 17:17:43;;;;;;;5.47;1.65;;;;;;;21.11;56.97;100887.19;10458763;28;20057;-72
2023/08/09 17:22:45;;;;;;;2.50;1.52;;;;;;;21.47;55.92;100900.41;10478776;28;20041;-73
2023/08/09 17:27:47;;;;;;;2.00;1.70;;;;;;;21.20;56.73;100901.88;10464983;28;20049;-73
2023/08/09 17:32:49;;;;;;;1.80;1.45;;;;;;;21.17;57.01;100892.19;10483952;28;20044;-72
2023/08/09 17:37:53;;;;;;;4.93;1.80;;;;;;;21.22;56.97;100897.59;10477786;28;20557;-72
2023/08/09 17:42:55;;;;;;;3.55;1.92;;;;;;;21.66;56.27;100912.63;10453937;28;20045;-71
2023/08/09 17:47:58;;;;;;;2.13;1.92;;;;;;;21.63;56.59;100920.91;10483718;28;20041;-71
2023/08/09 17:53:00;;;;;;;1.90;1.58;;;;;;;21.68;55.85;100906.69;10463642;28;20053;-71
2023/08/09 17:58:02;;;;;;;2.80;1.67;;;;;;;21.64;55.53;100914.97;10515156;28;20041;-72
2023/08/09 18:03:06;;;;;;;2.65;1.85;;;;;;;21.74;56.31;100927.66;10480453;28;20418;-71
2023/08/09 18:08:09;;;;;;;4.38;2.58;;;;;;;21.82;55.82;100928.69;10500503;28;20048;-71
2023/08/09 18:13:11;;;;;;;5.07;2.88;;;;;;;21.52;57.31;100939.25;10529871;28;20054;-71
2023/08/09 18:18:13;;;;;;;9.93;3.35;;;;;;;21.59;57.04;100937.53;10489719;28;20041;-71
2023/08/09 18:23:15;;;;;;;6.88;3.22;;;;;;;21.26;58.59;100936.81;10496968;28;20033;-71
2023/08/09 18:28:17;;;;;;;5.03;3.70;;;;;;;21.06;59.06;100944.06;10517748;28;20048;-71
2023/08/09 18:33:19;;;;;;;4.68;2.92;;;;;;;20.92;58.97;100952.72;10501868;28;20045;-71
2023/08/09 18:38:21;;;;;;;4.47;2.90;;;;;;;20.80;59.87;100937.91;10484429;28;20041;-71
2023/08/09 18:43:25;;;;;;;3.92;2.70;;;;;;;20.61;61.02;100947.59;10481003;28;20491;-71
2023/08/09 18:48:27;;;;;;;4.47;2.50;;;;;;;20.44;62.64;100929.03;10488891;28;20040;-71
2023/08/09 18:53:29;;;;;;;3.60;2.45;;;;;;;20.28;63.57;100930.78;10485295;28;20061;-71
2023/08/09 18:58:31;;;;;;;4.43;2.70;;;;;;;20.22;64.41;100942.47;10465756;28;20494;-71
2023/08/09 19:03:36;;;;;;;4.75;2.88;;;;;;;20.34;64.41;100936.97;10478820;28;20033;-71
2023/08/09 19:08:41;;;;;;;3.17;2.50;;;;;;;20.23;64.60;100941.31;10458880;28;20040;-71
2023/08/09 19:13:43;;;;;;;4.40;2.40;;;;;;;20.15;65.03;100929.09;10468057;28;20041;-73
2023/08/09 19:18:47;;;;;;;3.78;2.28;;;;;;;20.18;65.01;100964.63;10486812;28;20045;-74
2023/08/09 19:23:50;;;;;;;7.65;2.35;;;;;;;20.38;65.09;100971.38;10470651;28;20049;-77
2023/08/09 19:28:52;;;;;;;4.80;2.63;;;;;;;20.27;65.14;100968.16;10473826;28;20056;-77
2023/08/09 19:33:54;;;;;;;4.32;2.22;;;;;;;20.64;62.98;100957.25;10453369;28;20061;-77
2023/08/09 19:39:00;;;;;;;3.80;2.45;;;;;;;20.54;62.99;100968.81;10458131;28;20059;-77
2023/08/09 19:44:02;;;;;;;4.38;2.42;;;;;;;20.40;63.53;100964.31;10455692;28;20083;-78
2023/08/09 19:49:04;;;;;;;6.68;2.67;;;;;;;20.51;62.38;100973.13;10467252;28;20036;-79
2023/08/09 19:54:07;;;;;;;7.30;2.50;;;;;;;20.44;63.37;100981.19;10457293;28;20056;-78
2023/08/09 19:59:12;;;;;;;4.65;2.45;;;;;;;20.61;62.81;100969.09;10498994;28;20049;-79
2023/08/09 20:04:16;;;;;;;4.55;2.78;;;;;;;20.42;63.08;100991.88;10512043;28;20043;-78
2023/08/09 20:09:19;;;;;;;4.50;2.30;;;;;;;20.26;63.11;100985.22;10560093;28;20041;-77
2023/08/09 20:14:22;;;;;;;4.80;2.85;;;;;;;20.24;63.19;100968.84;10528232;28;20047;-78
2023/08/09 20:19:24;;;;;;;4.43;2.20;;;;;;;20.15;63.50;100963.34;10511523;28;20059;-77
2023/08/09 20:24:36;;;;;;;3.35;2.30;;;;;;;20.03;64.28;100982.75;10523662;28;20064;-78
2023/08/09 20:29:38;;;;;;;6.40;2.80;;;;;;;20.02;63.88;100986.69;10528339;28;20071;-78
2023/08/09 20:34:41;;;;;;;4.20;2.35;;;;;;;20.18;63.72;100996.09;10511109;28;20048;-78
2023/08/09 20:39:43;;;;;;;4.25;2.25;;;;;;;20.28;63.03;100983.72;10503944;28;20409;-78
2023/08/09 20:44:45;;;;;;;4.72;3.30;;;;;;;20.02;63.38;100992.25;10510631;28;20040;-78
2023/08/09 20:49:47;;;;;;;3.67;2.20;;;;;;;19.84;62.95;100991.53;10499092;28;20048;-78
2023/08/09 20:54:49;;;;;;;4.88;2.60;;;;;;;19.85;62.59;100981.22;10515998;28;20044;-78
2023/08/09 20:59:52;;;;;;;3.63;2.28;;;;;;;19.78;63.02;100994.81;10521431;28;20047;-78
2023/08/09 21:04:54;;;;;;;3.67;2.30;;;;;;;19.98;62.28;100994.09;10522575;28;20454;-76
2023/08/09 21:09:57;;;;;;;5.03;2.25;;;;;;;20.04;61.51;100983.56;10506307;28;20044;-75
2023/08/09 21:14:59;;;;;;;4.18;2.38;;;;;;;19.93;62.14;100994.25;10507653;28;20060;-77
2023/08/09 21:20:01;;;;;;;4.25;2.20;;;;;;;19.96;61.56;100984.41;10519205;28;20048;-76
2023/08/09 21:25:04;;;;;;;4.93;2.75;;;;;;;19.72;62.20;100993.38;10493872;28;20049;-77
2023/08/09 21:30:06;;;;;;;7.70;2.85;;;;;;;19.39;63.00;100999.53;10526601;28;20051;-77
2023/08/09 21:35:09;;;;;;;3.33;2.25;;;;;;;19.54;62.93;101004.59;10477647;28;20049;-77
2023/08/09 21:40:12;;;;;;;6.35;2.80;;;;;;;19.42;62.65;100996.06;10534401;28;20507;-77
2023/08/09 21:45:14;;;;;;;3.35;2.40;;;;;;;19.26;63.32;101008.88;10517478;28;20053;-77
2023/08/09 21:50:17;;;;;;;5.70;3.42;;;;;;;19.26;63.16;101008.88;10467181;28;20032;-77
2023/08/09 21:55:19;;;;;;;4.00;2.47;;;;;;;19.25;63.02;101024.75;10528449;28;20048;-77
2023/08/09 22:00:23;;;;;;;4.05;2.53;;;;;;;19.29;62.64;101027.72;10528585;28;20036;-77
2023/08/09 22:05:25;;;;;;;4.55;2.70;;;;;;;19.23;62.69;101026.25;10502337;28;20044;-76
2023/08/09 22:10:27;;;;;;;5.70;2.63;;;;;;;19.18;63.24;101023.63;10532753;28;20507;-76
2023/08/09 22:15:30;;;;;;;3.47;2.28;;;;;;;19.30;63.19;101020.19;10527996;28;20060;-77
2023/08/09 22:20:32;;;;;;;3.85;2.53;;;;;;;19.32;63.00;101020.69;10494432;28;20040;-76
2023/08/09 22:25:34;;;;;;;4.20;2.60;;;;;;;19.33;63.24;101025.91;10532927;28;20036;-77
2023/08/09 22:30:36;;;;;;;5.03;2.30;;;;;;;19.15;64.61;101038.22;10484318;28;20052;-76
2023/08/09 22:35:38;;;;;;;4.65;2.45;;;;;;;19.19;64.47;101050.31;10531677;28;20040;-77
2023/08/09 22:40:41;;;;;;;4.03;2.80;;;;;;;19.03;65.32;101044.44;10531135;28;20036;-77
2023/08/09 22:45:43;;;;;;;4.03;2.47;;;;;;;19.13;64.59;101052.47;10520503;28;20051;-77
2023/08/09 22:50:47;;;;;;;4.47;2.25;;;;;;;19.51;64.15;101058.13;10529520;28;20036;-76
2023/08/09 22:55:53;;;;;;;3.90;2.17;;;;;;;19.98;62.32;101058.16;10522728;28;20047;-77
2023/08/09 23:00:55;;;;;;;6.45;2.40;;;;;;;20.13;61.93;101057.59;10525782;28;20055;-77
2023/08/09 23:05:58;;;;;;;5.95;2.10;;;;;;;20.06;62.47;101062.88;10525122;28;20059;-77
2023/08/09 23:11:04;;;;;;;4.80;2.78;;;;;;;20.31;62.47;101063.91;10510047;28;20045;-77